sensor_id;sensor_type;location;lat;lon;timestamp;temperature;humidity
14154;DHT22;7157;53.144;7.570;2022-11-09T00:04:59;13.93;78.69
14154;DHT22;7157;53.144;7.570;2022-11-09T00:15:04;13.92;79.04
14154;DHT22;7157;53.144;7.570;2022-11-09T00:25:08;13.82;79.49
14154;DHT22;7157;53.144;7.570;2022-11-09T00:35:12;13.75;79.95
14154;DHT22;7157;53.144;7.570;2022-11-09T00:45:18;13.75;80.23
14154;DHT22;7157;53.144;7.570;2022-11-09T00:55:22;13.75;80.84
14154;DHT22;7157;53.144;7.570;2022-11-09T01:05:25;13.97;80.64
14154;DHT22;7157;53.144;7.570;2022-11-09T01:15:29;14.20;80.63
14154;DHT22;7157;53.144;7.570;2022-11-09T01:25:31;14.30;80.46
14154;DHT22;7157;53.144;7.570;2022-11-09T01:35:37;14.50;80.07
14154;DHT22;7157;53.144;7.570;2022-11-09T01:45:41;14.60;79.69
14154;DHT22;7157;53.144;7.570;2022-11-09T01:55:50;14.70;79.44
14154;DHT22;7157;53.144;7.570;2022-11-09T02:05:53;14.78;79.17
14154;DHT22;7157;53.144;7.570;2022-11-09T02:15:58;14.75;79.10
14154;DHT22;7157;53.144;7.570;2022-11-09T02:26:05;14.74;79.24
14154;DHT22;7157;53.144;7.570;2022-11-09T02:36:08;14.78;79.26
14154;DHT22;7157;53.144;7.570;2022-11-09T02:46:21;14.72;79.23
14154;DHT22;7157;53.144;7.570;2022-11-09T02:56:24;14.66;79.38
14154;DHT22;7157;53.144;7.570;2022-11-09T03:06:28;14.62;79.33
14154;DHT22;7157;53.144;7.570;2022-11-09T03:16:35;14.68;78.92
14154;DHT22;7157;53.144;7.570;2022-11-09T03:26:39;14.55;79.26
14154;DHT22;7157;53.144;7.570;2022-11-09T03:36:42;14.44;79.72
14154;DHT22;7157;53.144;7.570;2022-11-09T03:46:46;14.47;79.25
14154;DHT22;7157;53.144;7.570;2022-11-09T03:56:49;14.42;79.24
14154;DHT22;7157;53.144;7.570;2022-11-09T04:06:53;14.24;79.76
14154;DHT22;7157;53.144;7.570;2022-11-09T04:16:56;14.28;79.66
14154;DHT22;7157;53.144;7.570;2022-11-09T04:27:00;14.15;80.45
14154;DHT22;7157;53.144;7.570;2022-11-09T04:37:03;14.22;80.24
14154;DHT22;7157;53.144;7.570;2022-11-09T04:47:07;14.18;80.24
14154;DHT22;7157;53.144;7.570;2022-11-09T04:57:09;14.25;79.70
14154;DHT22;7157;53.144;7.570;2022-11-09T05:07:13;14.17;80.08
14154;DHT22;7157;53.144;7.570;2022-11-09T05:17:16;14.19;80.38
14154;DHT22;7157;53.144;7.570;2022-11-09T05:27:20;14.12;81.14
14154;DHT22;7157;53.144;7.570;2022-11-09T05:37:23;14.23;81.10
14154;DHT22;7157;53.144;7.570;2022-11-09T05:47:27;14.11;81.88
14154;DHT22;7157;53.144;7.570;2022-11-09T05:57:30;13.99;82.45
14154;DHT22;7157;53.144;7.570;2022-11-09T06:07:34;13.92;82.93
14154;DHT22;7157;53.144;7.570;2022-11-09T06:17:36;13.94;82.39
14154;DHT22;7157;53.144;7.570;2022-11-09T06:27:40;13.92;82.49
14154;DHT22;7157;53.144;7.570;2022-11-09T06:37:43;13.86;82.44
14154;DHT22;7157;53.144;7.570;2022-11-09T06:47:47;13.77;82.60
14154;DHT22;7157;53.144;7.570;2022-11-09T06:57:49;13.83;81.95
14154;DHT22;7157;53.144;7.570;2022-11-09T07:07:53;13.70;81.96
14154;DHT22;7157;53.144;7.570;2022-11-09T07:17:56;13.63;82.06
14154;DHT22;7157;53.144;7.570;2022-11-09T07:28:05;13.67;81.78
14154;DHT22;7157;53.144;7.570;2022-11-09T07:38:09;13.69;81.78
14154;DHT22;7157;53.144;7.570;2022-11-09T07:48:13;13.86;81.09
14154;DHT22;7157;53.144;7.570;2022-11-09T07:58:16;13.97;80.53
14154;DHT22;7157;53.144;7.570;2022-11-09T08:08:20;14.04;80.52
14154;DHT22;7157;53.144;7.570;2022-11-09T08:18:22;14.22;79.91
14154;DHT22;7157;53.144;7.570;2022-11-09T08:28:26;14.19;79.91
14154;DHT22;7157;53.144;7.570;2022-11-09T08:38:29;14.36;79.11
14154;DHT22;7157;53.144;7.570;2022-11-09T08:48:34;14.70;78.05
14154;DHT22;7157;53.144;7.570;2022-11-09T08:58:38;14.69;78.49
14154;DHT22;7157;53.144;7.570;2022-11-09T09:08:42;14.85;77.95
14154;DHT22;7157;53.144;7.570;2022-11-09T09:18:46;15.13;77.48
14154;DHT22;7157;53.144;7.570;2022-11-09T09:28:51;15.38;75.32
14154;DHT22;7157;53.144;7.570;2022-11-09T09:38:53;15.40;74.92
14154;DHT22;7157;53.144;7.570;2022-11-09T09:49:02;15.61;74.31
14154;DHT22;7157;53.144;7.570;2022-11-09T09:59:10;15.58;73.59
14154;DHT22;7157;53.144;7.570;2022-11-09T10:09:24;15.62;73.93
14154;DHT22;7157;53.144;7.570;2022-11-09T10:19:39;15.83;73.09
14154;DHT22;7157;53.144;7.570;2022-11-09T10:29:47;15.89;72.40
14154;DHT22;7157;53.144;7.570;2022-11-09T10:39:55;16.20;71.69
14154;DHT22;7157;53.144;7.570;2022-11-09T10:50:20;16.49;70.50
14154;DHT22;7157;53.144;7.570;2022-11-09T11:00:23;16.62;69.99
14154;DHT22;7157;53.144;7.570;2022-11-09T11:10:28;16.37;70.21
14154;DHT22;7157;53.144;7.570;2022-11-09T11:20:31;16.49;69.55
14154;DHT22;7157;53.144;7.570;2022-11-09T11:30:36;16.20;70.15
14154;DHT22;7157;53.144;7.570;2022-11-09T11:40:44;17.00;65.72
14154;DHT22;7157;53.144;7.570;2022-11-09T11:50:56;17.69;60.56
14154;DHT22;7157;53.144;7.570;2022-11-09T12:01:11;16.80;65.24
14154;DHT22;7157;53.144;7.570;2022-11-09T12:11:32;16.91;63.92
14154;DHT22;7157;53.144;7.570;2022-11-09T12:21:42;16.22;66.72
14154;DHT22;7157;53.144;7.570;2022-11-09T12:31:58;16.18;66.81
14154;DHT22;7157;53.144;7.570;2022-11-09T12:42:05;16.11;66.63
14154;DHT22;7157;53.144;7.570;2022-11-09T12:52:14;16.15;67.61
14154;DHT22;7157;53.144;7.570;2022-11-09T13:02:23;15.96;66.68
14154;DHT22;7157;53.144;7.570;2022-11-09T13:12:34;15.96;67.49
14154;DHT22;7157;53.144;7.570;2022-11-09T13:22:58;15.90;67.01
14154;DHT22;7157;53.144;7.570;2022-11-09T13:33:33;15.71;67.62
14154;DHT22;7157;53.144;7.570;2022-11-09T13:43:37;15.45;68.13
14154;DHT22;7157;53.144;7.570;2022-11-09T13:53:51;15.44;68.39
14154;DHT22;7157;53.144;7.570;2022-11-09T14:03:54;15.53;68.83
14154;DHT22;7157;53.144;7.570;2022-11-09T14:14:26;15.47;68.86
14154;DHT22;7157;53.144;7.570;2022-11-09T14:24:31;15.89;65.01
14154;DHT22;7157;53.144;7.570;2022-11-09T14:34:35;15.71;65.68
14154;DHT22;7157;53.144;7.570;2022-11-09T14:44:42;15.46;65.94
14154;DHT22;7157;53.144;7.570;2022-11-09T14:54:48;15.22;67.43
14154;DHT22;7157;53.144;7.570;2022-11-09T15:04:55;15.11;67.65
14154;DHT22;7157;53.144;7.570;2022-11-09T15:15:04;14.94;68.36
14154;DHT22;7157;53.144;7.570;2022-11-09T15:25:18;14.80;70.83
14154;DHT22;7157;53.144;7.570;2022-11-09T15:35:23;14.09;76.16
14154;DHT22;7157;53.144;7.570;2022-11-09T15:45:26;13.52;80.51
14154;DHT22;7157;53.144;7.570;2022-11-09T15:55:30;13.38;81.75
14154;DHT22;7157;53.144;7.570;2022-11-09T16:05:34;13.48;80.73
14154;DHT22;7157;53.144;7.570;2022-11-09T16:15:38;13.51;80.06
14154;DHT22;7157;53.144;7.570;2022-11-09T16:25:41;13.78;78.85
14154;DHT22;7157;53.144;7.570;2022-11-09T16:35:46;13.80;78.93
14154;DHT22;7157;53.144;7.570;2022-11-09T16:45:49;13.63;80.10
14154;DHT22;7157;53.144;7.570;2022-11-09T16:55:53;13.55;80.03
14154;DHT22;7157;53.144;7.570;2022-11-09T17:05:58;13.17;81.57
14154;DHT22;7157;53.144;7.570;2022-11-09T17:16:07;13.09;81.84
14154;DHT22;7157;53.144;7.570;2022-11-09T17:26:10;12.92;82.77
14154;DHT22;7157;53.144;7.570;2022-11-09T17:36:16;12.93;82.85
14154;DHT22;7157;53.144;7.570;2022-11-09T17:46:35;12.71;84.14
14154;DHT22;7157;53.144;7.570;2022-11-09T17:56:40;12.85;84.77
14154;DHT22;7157;53.144;7.570;2022-11-09T18:06:42;12.89;84.48
14154;DHT22;7157;53.144;7.570;2022-11-09T18:16:46;12.82;85.71
14154;DHT22;7157;53.144;7.570;2022-11-09T18:26:49;12.73;86.82
14154;DHT22;7157;53.144;7.570;2022-11-09T18:36:53;12.76;87.07
14154;DHT22;7157;53.144;7.570;2022-11-09T18:46:56;12.91;85.96
14154;DHT22;7157;53.144;7.570;2022-11-09T18:57:06;12.65;86.89
14154;DHT22;7157;53.144;7.570;2022-11-09T19:07:09;12.75;86.80
14154;DHT22;7157;53.144;7.570;2022-11-09T19:17:14;12.87;86.08
14154;DHT22;7157;53.144;7.570;2022-11-09T19:27:17;12.44;88.18
14154;DHT22;7157;53.144;7.570;2022-11-09T19:37:21;12.42;88.60
14154;DHT22;7157;53.144;7.570;2022-11-09T19:47:24;12.38;88.03
14154;DHT22;7157;53.144;7.570;2022-11-09T19:57:28;12.59;87.44
14154;DHT22;7157;53.144;7.570;2022-11-09T20:07:31;12.57;88.08
14154;DHT22;7157;53.144;7.570;2022-11-09T20:17:35;12.66;87.59
14154;DHT22;7157;53.144;7.570;2022-11-09T20:27:38;12.45;88.95
14154;DHT22;7157;53.144;7.570;2022-11-09T20:37:41;12.43;88.77
14154;DHT22;7157;53.144;7.570;2022-11-09T20:47:44;12.58;88.01
14154;DHT22;7157;53.144;7.570;2022-11-09T20:58:10;12.42;88.32
14154;DHT22;7157;53.144;7.570;2022-11-09T21:08:13;12.40;87.87
14154;DHT22;7157;53.144;7.570;2022-11-09T21:18:17;12.51;86.81
14154;DHT22;7157;53.144;7.570;2022-11-09T21:28:21;12.45;86.79
14154;DHT22;7157;53.144;7.570;2022-11-09T21:38:39;12.20;87.51
14154;DHT22;7157;53.144;7.570;2022-11-09T21:48:42;12.07;87.63
14154;DHT22;7157;53.144;7.570;2022-11-09T21:58:46;12.06;87.45
14154;DHT22;7157;53.144;7.570;2022-11-09T22:08:49;11.93;87.50
14154;DHT22;7157;53.144;7.570;2022-11-09T22:18:53;11.79;87.61
14154;DHT22;7157;53.144;7.570;2022-11-09T22:29:13;11.77;87.39
14154;DHT22;7157;53.144;7.570;2022-11-09T22:39:17;11.73;86.98
14154;DHT22;7157;53.144;7.570;2022-11-09T22:49:20;11.57;87.57
14154;DHT22;7157;53.144;7.570;2022-11-09T22:59:24;11.47;87.64
14154;DHT22;7157;53.144;7.570;2022-11-09T23:09:27;11.49;88.31
14154;DHT22;7157;53.144;7.570;2022-11-09T23:19:31;11.28;89.66
14154;DHT22;7157;53.144;7.570;2022-11-09T23:29:33;11.19;91.11
14154;DHT22;7157;53.144;7.570;2022-11-09T23:39:38;11.09;92.24
14154;DHT22;7157;53.144;7.570;2022-11-09T23:49:40;11.22;92.61
14154;DHT22;7157;53.144;7.570;2022-11-09T23:59:44;11.19;92.56
